Time;durP1;ratioP1;P1;durP2;ratioP2;P2;SDS_P1;SDS_P2;PMS_P1;PMS_P2;Temp;Humidity;BMP_temperature;BMP_pressure;BME280_temperature;BME280_humidity;BME280_pressure;Samples;Min_cycle;Max_cycle;Signal;HPM_P1;HPM_P2
2023/01/06 00:01:25;;;;;;;21.70;13.30;;;;;;;10.87;100.00;98805.25;5139253;23;20581;-94
2023/01/06 00:03:29;;;;;;;19.70;13.30;;;;;;;10.86;100.00;98798.34;5114865;23;20578;-93
2023/01/06 00:05:33;;;;;;;20.67;14.50;;;;;;;10.89;100.00;98793.78;5114903;23;20629;-94
2023/01/06 00:07:38;;;;;;;20.90;13.60;;;;;;;10.84;100.00;98795.81;5138576;23;20596;-94
2023/01/06 00:09:41;;;;;;;23.87;15.73;;;;;;;10.86;100.00;98796.56;5112754;23;20665;-93
2023/01/06 00:11:45;;;;;;;19.73;14.47;;;;;;;10.86;100.00;98791.34;5113169;23;20605;-94
2023/01/06 00:13:49;;;;;;;22.70;14.70;;;;;;;10.86;100.00;98790.53;5114631;23;20606;-93
2023/01/06 00:15:54;;;;;;;20.13;14.80;;;;;;;10.85;100.00;98787.09;5114286;23;20597;-94
2023/01/06 00:17:59;;;;;;;20.97;15.63;;;;;;;10.89;100.00;98792.94;5114548;23;21128;-94
2023/01/06 00:20:02;;;;;;;18.87;14.80;;;;;;;10.87;100.00;98784.38;5114657;23;21121;-94
2023/01/06 00:22:06;;;;;;;21.13;14.40;;;;;;;10.89;100.00;98788.56;5113854;23;20574;-94
2023/01/06 00:24:11;;;;;;;19.60;14.30;;;;;;;10.90;100.00;98778.97;5112983;23;20621;-94
2023/01/06 00:26:16;;;;;;;20.33;13.90;;;;;;;10.90;100.00;98777.22;5113916;23;20924;-94
2023/01/06 00:28:21;;;;;;;23.97;14.03;;;;;;;10.90;100.00;98769.38;5114126;23;21136;-94
2023/01/06 00:30:25;;;;;;;23.00;13.93;;;;;;;10.90;100.00;98772.00;5113902;23;20546;-94
2023/01/06 00:32:28;;;;;;;18.73;13.93;;;;;;;10.90;100.00;98772.00;5112232;23;20602;-94
2023/01/06 00:34:35;;;;;;;18.83;12.97;;;;;;;10.91;100.00;98776.25;5112239;23;20911;-94
2023/01/06 00:36:39;;;;;;;20.13;14.03;;;;;;;10.93;100.00;98774.41;5137443;23;21158;-95
2023/01/06 00:38:44;;;;;;;19.90;13.83;;;;;;;10.90;100.00;98761.53;5114204;23;21128;-94
2023/01/06 00:40:48;;;;;;;22.90;14.00;;;;;;;10.93;99.99;98763.97;5138296;23;20601;-94
2023/01/06 00:42:51;;;;;;;23.73;13.77;;;;;;;10.94;100.00;98764.81;5113926;23;20902;-94
2023/01/06 00:44:55;;;;;;;22.97;14.90;;;;;;;10.87;100.00;98753.91;5113170;23;20908;-94
2023/01/06 00:46:58;;;;;;;21.60;15.90;;;;;;;10.87;100.00;98761.72;5113045;23;20979;-95
2023/01/06 00:49:04;;;;;;;23.57;17.93;;;;;;;10.86;100.00;98749.59;5113094;23;20926;-94
2023/01/06 00:51:11;;;;;;;26.37;18.87;;;;;;;10.90;100.00;98756.34;5113688;23;20585;-94
2023/01/06 00:53:15;;;;;;;19.40;13.40;;;;;;;10.88;100.00;98750.38;5114677;23;20613;-94
2023/01/06 00:55:18;;;;;;;24.33;14.23;;;;;;;10.87;100.00;98748.69;5114491;23;20592;-93
2023/01/06 00:57:22;;;;;;;19.83;14.13;;;;;;;10.87;100.00;98755.69;5115002;23;20581;-94
2023/01/06 00:59:27;;;;;;;22.57;13.33;;;;;;;10.89;100.00;98748.59;5115081;23;20588;-95
2023/01/06 01:01:30;;;;;;;18.97;14.20;;;;;;;10.87;99.86;98743.47;5138583;23;20898;-94
2023/01/06 01:03:34;;;;;;;20.10;13.80;;;;;;;10.84;100.00;98745.41;5113800;23;20970;-94
2023/01/06 01:05:37;;;;;;;16.93;14.20;;;;;;;10.84;100.00;98742.81;5114138;23;20632;-95
2023/01/06 01:07:42;;;;;;;19.60;14.40;;;;;;;10.86;100.00;98741.78;5114335;23;20586;-94
2023/01/06 01:09:45;;;;;;;20.33;15.33;;;;;;;10.85;100.00;98747.94;5138541;23;20580;-94
2023/01/06 01:14:12;;;;;;;18.80;15.37;;;;;;;10.87;100.00;98743.47;5114054;23;20586;-94
2023/01/06 01:16:16;;;;;;;18.30;14.37;;;;;;;10.87;100.00;98743.47;5113143;23;20582;-94
2023/01/06 01:18:19;;;;;;;24.00;16.63;;;;;;;10.86;100.00;98733.13;5114247;23;20945;-93
2023/01/06 01:20:23;;;;;;;25.17;16.77;;;;;;;10.87;100.00;98740.03;5113494;23;21025;-94
2023/01/06 01:22:29;;;;;;;23.57;16.80;;;;;;;10.85;100.00;98741.88;5138169;23;20573;-95
2023/01/06 01:24:34;;;;;;;20.00;15.77;;;;;;;10.86;100.00;98738.34;5114423;23;20583;-94
2023/01/06 01:26:37;;;;;;;21.13;15.50;;;;;;;10.82;100.00;98732.47;5113624;23;21200;-94
2023/01/06 01:28:41;;;;;;;20.27;14.80;;;;;;;10.81;100.00;98735.16;5113638;23;20604;-94
2023/01/06 01:30:45;;;;;;;19.13;13.80;;;;;;;10.81;100.00;98746.44;5114662;23;20600;-94
2023/01/06 01:32:48;;;;;;;21.70;14.57;;;;;;;10.80;100.00;98732.66;5140562;23;20577;-94
2023/01/06 01:34:52;;;;;;;19.43;13.80;;;;;;;10.80;100.00;98737.88;5091194;23;20578;-93
2023/01/06 01:36:57;;;;;;;20.80;12.70;;;;;;;10.80;100.00;98732.66;5115304;23;20590;-94
2023/01/06 01:39:02;;;;;;;21.23;13.43;;;;;;;10.78;100.00;98729.28;5115192;23;20640;-93
2023/01/06 01:41:07;;;;;;;17.53;13.17;;;;;;;10.74;100.00;98726.00;5114833;23;20628;-95
2023/01/06 01:43:12;;;;;;;25.10;14.00;;;;;;;10.75;100.00;98726.84;5115327;23;20676;-94
2023/01/06 01:45:22;;;;;;;21.70;13.43;;;;;;;10.74;100.00;98731.22;5114608;23;20581;-95
2023/01/06 01:47:37;;;;;;;18.70;13.17;;;;;;;10.72;100.00;98724.41;5139670;23;20605;-95
2023/01/06 01:49:42;;;;;;;17.60;11.87;;;;;;;10.70;100.00;98726.28;5115139;23;20600;-94
2023/01/06 01:51:49;;;;;;;20.20;12.63;;;;;;;10.68;100.00;98725.53;5115475;23;20692;-94
2023/01/06 01:53:57;;;;;;;21.20;13.47;;;;;;;10.68;100.00;98730.75;5116076;23;20577;-94
2023/01/06 01:56:04;;;;;;;14.97;12.27;;;;;;;10.66;100.00;98724.75;5139890;23;20627;-94
2023/01/06 01:58:10;;;;;;;24.33;13.43;;;;;;;10.63;100.00;98717.13;5141266;23;20661;-94
2023/01/06 02:00:15;;;;;;;21.27;14.00;;;;;;;10.58;100.00;98716.56;5140049;23;20601;-94
2023/01/06 02:02:18;;;;;;;19.60;13.23;;;;;;;10.57;100.00;98727.91;5139492;23;21032;-94
2023/01/06 02:04:23;;;;;;;19.63;12.68;;;;;;;10.55;100.00;98725.38;5116106;23;21422;-94
2023/01/06 02:06:28;;;;;;;23.27;12.70;;;;;;;10.54;100.00;98728.94;5140723;23;20198;-95
2023/01/06 02:08:35;;;;;;;18.03;11.77;;;;;;;10.51;100.00;98720.47;5115275;23;21156;-94
2023/01/06 02:10:39;;;;;;;16.90;12.10;;;;;;;10.48;100.00;98721.47;5114624;23;20590;-94
2023/01/06 02:12:43;;;;;;;20.33;11.77;;;;;;;10.48;99.39;98720.66;5114723;23;20997;-94
2023/01/06 02:14:49;;;;;;;14.53;11.40;;;;;;;10.47;100.00;98722.41;5115070;23;21113;-94
2023/01/06 02:17:07;;;;;;;14.20;11.33;;;;;;;10.47;100.00;98719.78;5138393;23;20593;-95
2023/01/06 02:19:28;;;;;;;18.57;11.73;;;;;;;10.48;100.00;98716.25;5139806;23;20605;-95
2023/01/06 02:21:42;;;;;;;19.20;12.47;;;;;;;10.45;100.00;98719.03;5114889;23;20573;-94
2023/01/06 02:24:17;;;;;;;18.15;11.23;;;;;;;10.45;100.00;98715.59;5140408;23;20600;-94
2023/01/06 02:26:51;;;;;;;20.63;11.53;;;;;;;10.47;100.00;98708.53;5115157;23;20175;-95
2023/01/06 02:29:27;;;;;;;26.17;13.73;;;;;;;10.44;100.00;98704.31;5114139;23;20602;-95
2023/01/06 02:31:42;;;;;;;19.60;10.18;;;;;;;10.40;100.00;98701.97;5113154;23;20920;-94
2023/01/06 02:33:51;;;;;;;16.50;11.00;;;;;;;10.41;100.00;98708.88;5114823;23;20250;-95
2023/01/06 02:36:32;;;;;;;18.10;11.63;;;;;;;10.39;100.00;98706.34;5114844;23;20600;-94
2023/01/06 02:38:45;;;;;;;16.07;10.77;;;;;;;10.37;100.00;98692.59;5063437;23;20647;-94
2023/01/06 02:40:59;;;;;;;17.80;11.90;;;;;;;10.36;100.00;98697.88;5114152;23;20576;-94
2023/01/06 02:43:12;;;;;;;20.95;11.18;;;;;;;10.36;100.00;98700.50;5138686;23;20608;-94
2023/01/06 02:45:19;;;;;;;19.87;11.73;;;;;;;10.36;100.00;98696.09;5114278;23;20182;-96
2023/01/06 02:47:30;;;;;;;17.67;12.27;;;;;;;10.39;100.00;98700.31;5115121;23;20610;-94
2023/01/06 02:49:42;;;;;;;13.73;11.17;;;;;;;10.38;100.00;98693.41;5139606;23;21079;-95
2023/01/06 02:51:51;;;;;;;15.73;11.30;;;;;;;10.37;100.00;98703.00;5114371;23;20628;-95
2023/01/06 02:54:07;;;;;;;16.23;10.63;;;;;;;10.38;100.00;98701.22;5114909;23;20584;-94
2023/01/06 02:56:11;;;;;;;12.52;9.32;;;;;;;10.36;100.00;98703.94;5114173;23;20625;-94
2023/01/06 02:58:23;;;;;;;15.57;10.13;;;;;;;10.36;100.00;98703.94;5115011;23;20226;-94
2023/01/06 03:00:30;;;;;;;12.00;9.93;;;;;;;10.37;100.00;98715.19;5114349;23;20632;-94
2023/01/06 03:02:36;;;;;;;15.03;10.30;;;;;;;10.36;100.00;98708.31;5114035;23;20588;-95
2023/01/06 03:04:43;;;;;;;18.33;10.43;;;;;;;10.37;100.00;98705.63;5114269;23;20625;-94
2023/01/06 03:06:51;;;;;;;16.00;10.93;;;;;;;10.38;100.00;98698.63;5138591;23;20629;-94
2023/01/06 03:08:55;;;;;;;18.70;10.20;;;;;;;10.37;100.00;98705.63;5139558;23;20577;-94
2023/01/06 03:11:01;;;;;;;22.27;12.83;;;;;;;10.39;100.00;98695.09;5113510;23;20570;-95
2023/01/06 03:13:09;;;;;;;17.98;11.77;;;;;;;10.38;100.00;98702.06;5138745;23;20577;-94
2023/01/06 03:15:13;;;;;;;14.83;11.03;;;;;;;10.34;100.00;98707.53;5112622;23;20163;-94
2023/01/06 03:17:17;;;;;;;13.63;10.13;;;;;;;10.32;100.00;98701.59;5113525;23;20889;-94
2023/01/06 03:19:24;;;;;;;15.33;10.20;;;;;;;10.31;100.00;98696.47;5114526;23;20585;-95
2023/01/06 03:21:33;;;;;;;14.30;10.40;;;;;;;10.32;100.00;98699.81;5112913;23;20965;-94
2023/01/06 03:23:38;;;;;;;14.37;9.90;;;;;;;10.31;100.00;98696.47;5139993;23;20577;-95
2023/01/06 03:25:43;;;;;;;15.60;10.30;;;;;;;10.32;100.00;98694.59;5114386;23;20924;-93
2023/01/06 03:27:47;;;;;;;13.13;9.90;;;;;;;10.33;100.00;98691.06;5114645;23;21408;-95
2023/01/06 03:29:51;;;;;;;16.50;10.40;;;;;;;10.33;100.00;98691.06;5114549;23;20612;-94
2023/01/06 03:32:03;;;;;;;16.53;11.60;;;;;;;10.32;100.00;98694.59;5113761;23;20578;-93
2023/01/06 03:34:11;;;;;;;19.30;11.90;;;;;;;10.32;100.00;98688.56;5114577;23;20605;-94
2023/01/06 03:36:23;;;;;;;18.40;11.80;;;;;;;10.32;100.00;98678.13;5139198;23;20994;-95
2023/01/06 03:38:35;;;;;;;19.47;12.17;;;;;;;10.30;100.00;98682.59;5114326;23;20629;-95
2023/01/06 03:40:42;;;;;;;16.80;11.83;;;;;;;10.25;100.00;98682.00;5114293;23;20590;-94
2023/01/06 03:45:25;;;;;;;15.37;11.20;;;;;;;10.07;100.00;98683.09;5138364;23;20595;-94
2023/01/06 03:47:38;;;;;;;13.30;10.37;;;;;;;10.05;100.00;98678.88;5114157;23;20614;-95
2023/01/06 03:49:45;;;;;;;12.00;9.20;;;;;;;10.09;100.00;98681.22;5138740;23;20574;-94
2023/01/06 03:51:56;;;;;;;12.30;7.80;;;;;;;10.11;100.00;98679.34;5113403;23;20661;-95
2023/01/06 03:54:04;;;;;;;13.50;9.30;;;;;;;10.09;100.00;98676.00;5114514;23;20991;-95
2023/01/06 03:56:17;;;;;;;12.93;9.13;;;;;;;10.07;100.00;98677.00;5138545;23;20587;-94
2023/01/06 03:58:21;;;;;;;16.65;12.07;;;;;;;10.06;100.00;98689.22;5114184;23;20167;-94
2023/01/06 04:00:28;;;;;;;20.20;13.90;;;;;;;10.03;100.00;98692.00;5113095;23;20171;-95
2023/01/06 04:02:37;;;;;;;47.70;29.33;;;;;;;9.98;100.00;98678.38;5113776;23;20581;-94
2023/01/06 04:04:41;;;;;;;19.30;13.70;;;;;;;9.93;100.00;98677.78;5138534;23;20205;-95
2023/01/06 04:06:46;;;;;;;21.47;14.37;;;;;;;9.90;100.00;98674.50;5112851;23;20963;-95
2023/01/06 04:08:51;;;;;;;16.97;12.50;;;;;;;9.85;100.00;98672.13;5113193;23;21228;-94
2023/01/06 04:10:56;;;;;;;18.77;12.20;;;;;;;9.80;100.00;98662.06;5088947;23;20571;-95
2023/01/06 04:12:59;;;;;;;32.92;13.88;;;;;;;9.77;100.00;98670.06;5138013;23;21118;-94
2023/01/06 04:15:09;;;;;;;25.80;11.00;;;;;;;9.68;100.00;98662.75;5112857;23;20680;-94
2023/01/06 04:17:13;;;;;;;24.97;10.97;;;;;;;9.64;99.89;98664.69;5112608;23;20647;-94
2023/01/06 04:19:18;;;;;;;18.63;10.70;;;;;;;9.62;99.97;98658.75;5113527;23;20606;-95
2023/01/06 04:21:22;;;;;;;11.07;9.80;;;;;;;9.60;100.00;98654.53;5112493;23;20586;-94
2023/01/06 04:23:25;;;;;;;11.23;10.00;;;;;;;9.61;100.00;98656.22;5113053;23;20175;-93
2023/01/06 04:25:30;;;;;;;13.73;9.43;;;;;;;9.63;100.00;98660.41;5138132;23;20620;-95
2023/01/06 04:27:37;;;;;;;12.20;9.30;;;;;;;9.64;100.00;98658.66;5113309;23;20669;-95
2023/01/06 04:29:43;;;;;;;17.33;11.53;;;;;;;9.68;100.00;98661.00;5113796;23;20584;-95
2023/01/06 04:31:48;;;;;;;17.65;12.98;;;;;;;9.62;100.00;98653.53;5118836;23;20578;-95
2023/01/06 04:33:51;;;;;;;18.42;12.65;;;;;;;9.60;100.00;98659.75;5137396;23;20808;-94
2023/01/06 04:35:55;;;;;;;15.68;11.55;;;;;;;9.55;100.00;98661.75;5112780;23;20527;-94
2023/01/06 04:38:01;;;;;;;17.77;10.47;;;;;;;9.55;100.00;98665.19;5112534;23;20922;-94
2023/01/06 04:40:07;;;;;;;19.42;10.48;;;;;;;9.56;100.00;98660.81;5113332;23;20625;-94
2023/01/06 04:42:12;;;;;;;50.07;13.10;;;;;;;9.59;100.00;98660.66;5112844;23;20205;-95
2023/01/06 04:44:15;;;;;;;86.93;14.47;;;;;;;9.62;100.00;98665.69;5113542;23;20579;-95
2023/01/06 04:46:19;;;;;;;29.53;11.60;;;;;;;9.63;100.00;98660.41;5139841;23;20576;-94
2023/01/06 04:48:22;;;;;;;30.52;10.32;;;;;;;9.65;100.00;98665.53;5115472;23;20618;-94
2023/01/06 04:50:26;;;;;;;21.07;9.73;;;;;;;9.65;100.00;98657.72;5114658;23;20484;-95
2023/01/06 04:52:30;;;;;;;13.70;9.50;;;;;;;9.67;100.00;98661.91;5113905;23;20578;-94
2023/01/06 04:54:34;;;;;;;24.65;11.05;;;;;;;9.70;100.00;98664.34;5114716;23;20213;-94
2023/01/06 04:56:38;;;;;;;22.60;9.32;;;;;;;9.70;100.00;98666.13;5114700;23;20551;-94
2023/01/06 04:58:43;;;;;;;17.23;10.23;;;;;;;9.67;100.00;98666.28;5114888;23;20595;-95
2023/01/06 05:00:46;;;;;;;14.40;10.03;;;;;;;9.67;100.00;98664.53;5113020;23;21142;-95
2023/01/06 05:02:51;;;;;;;12.77;8.63;;;;;;;9.73;100.00;98661.56;5114253;23;20588;-93
2023/01/06 05:04:54;;;;;;;17.10;10.77;;;;;;;9.73;100.00;98661.56;5115130;23;20186;-94
2023/01/06 05:06:59;;;;;;;15.57;10.90;;;;;;;9.74;100.00;98658.06;5116984;23;20645;-95
2023/01/06 05:09:03;;;;;;;15.83;10.73;;;;;;;9.79;100.00;98666.44;5116204;23;20709;-94
2023/01/06 05:11:08;;;;;;;17.38;12.90;;;;;;;9.81;100.00;98655.94;5114966;23;20603;-95
2023/01/06 05:13:11;;;;;;;20.20;10.63;;;;;;;9.84;100.00;98660.97;5115015;23;20258;-95
2023/01/06 05:15:16;;;;;;;26.30;11.57;;;;;;;9.82;100.00;98655.84;5114702;23;21010;-95
2023/01/06 05:17:20;;;;;;;22.57;10.70;;;;;;;9.79;100.00;98652.56;5114406;23;20574;-95
2023/01/06 05:19:24;;;;;;;21.83;11.63;;;;;;;9.74;100.00;98646.78;5114953;23;20591;-95
2023/01/06 05:21:29;;;;;;;12.13;9.90;;;;;;;9.77;100.00;98657.84;5114516;23;20581;-95
2023/01/06 05:23:36;;;;;;;14.25;10.13;;;;;;;9.79;100.00;98656.03;5114814;23;20250;-93
2023/01/06 05:25:40;;;;;;;12.80;10.30;;;;;;;9.77;100.00;98657.03;5139912;23;20178;-95
2023/01/06 05:27:43;;;;;;;14.65;10.60;;;;;;;9.76;100.00;98655.34;5113700;23;20593;-94
2023/01/06 05:29:47;;;;;;;15.88;10.07;;;;;;;9.75;100.00;98656.28;5115312;23;20209;-95
2023/01/06 05:31:52;;;;;;;8.37;7.47;;;;;;;9.75;100.00;98656.28;5115312;23;20205;-95
2023/01/06 05:33:57;;;;;;;9.23;7.60;;;;;;;9.75;100.00;98651.06;5115230;23;21485;-95
2023/01/06 05:36:02;;;;;;;8.90;8.00;;;;;;;9.77;100.00;98652.66;5115538;23;20676;-95
2023/01/06 05:38:05;;;;;;;8.10;6.97;;;;;;;9.76;100.00;98645.78;5115536;23;20183;-93
2023/01/06 05:40:11;;;;;;;13.07;8.50;;;;;;;9.83;100.00;98657.50;5115372;23;21130;-95
2023/01/06 05:42:16;;;;;;;7.93;7.10;;;;;;;9.87;100.00;98654.66;5116452;23;20562;-95
2023/01/06 05:44:19;;;;;;;9.87;7.90;;;;;;;9.90;100.00;98648.44;5115956;23;20602;-95
2023/01/06 05:46:23;;;;;;;9.30;7.33;;;;;;;9.91;100.00;98650.97;5115824;23;20644;-95
2023/01/06 05:48:28;;;;;;;11.52;8.15;;;;;;;9.96;100.00;98654.16;5115979;23;20578;-95
2023/01/06 05:50:31;;;;;;;9.47;7.30;;;;;;;9.94;100.00;98650.00;5115808;23;20217;-95
2023/01/06 05:52:35;;;;;;;8.10;7.03;;;;;;;9.86;100.00;98644.31;5116277;23;20664;-94
2023/01/06 05:54:39;;;;;;;11.77;8.63;;;;;;;9.88;100.00;98640.72;5116825;23;20586;-95
2023/01/06 05:56:42;;;;;;;8.87;7.80;;;;;;;9.91;100.00;98650.13;5117543;23;20609;-95
2023/01/06 05:58:47;;;;;;;10.50;7.80;;;;;;;9.91;100.00;98648.34;5118514;23;20582;-95
2023/01/06 06:00:50;;;;;;;8.63;7.73;;;;;;;9.86;100.00;98637.38;5117840;23;20578;-95
2023/01/06 06:02:55;;;;;;;9.50;8.17;;;;;;;9.88;100.00;98639.88;5121548;23;20992;-96
2023/01/06 06:05:00;;;;;;;7.30;6.60;;;;;;;9.90;100.00;98646.66;5119656;23;20720;-95
2023/01/06 06:07:03;;;;;;;8.03;7.23;;;;;;;9.94;100.00;98642.16;5119543;23;20585;-95
2023/01/06 06:09:07;;;;;;;6.27;5.67;;;;;;;9.98;100.00;98647.13;5116694;23;20610;-95
2023/01/06 06:11:11;;;;;;;7.03;6.20;;;;;;;10.06;100.00;98650.13;5116512;23;20613;-94
2023/01/06 06:13:15;;;;;;;8.40;6.30;;;;;;;10.11;100.00;98658.50;5116723;23;20578;-95
2023/01/06 06:15:19;;;;;;;6.50;5.80;;;;;;;10.18;100.00;98659.84;5142053;23;20611;-96
2023/01/06 06:17:23;;;;;;;8.70;6.10;;;;;;;10.22;100.00;98653.50;5117219;23;20175;-95
2023/01/06 06:19:26;;;;;;;7.60;6.67;;;;;;;10.26;100.00;98647.19;5116535;23;20600;-96
2023/01/06 06:21:31;;;;;;;7.57;6.75;;;;;;;10.29;100.00;98640.97;5116660;23;21139;-95
2023/01/06 06:23:34;;;;;;;8.40;6.70;;;;;;;10.30;100.00;98642.63;5119169;23;20697;-95
2023/01/06 06:25:38;;;;;;;8.00;7.20;;;;;;;10.36;100.00;98664.00;5119873;23;20648;-95
2023/01/06 06:27:41;;;;;;;7.43;6.23;;;;;;;10.35;100.00;98662.31;5121001;23;20578;-95
2023/01/06 06:29:46;;;;;;;9.93;6.60;;;;;;;10.38;100.00;98668.16;5119003;23;20632;-96
2023/01/06 06:31:50;;;;;;;8.00;7.17;;;;;;;10.40;100.00;98666.34;5118915;23;20925;-95
2023/01/06 06:33:55;;;;;;;8.60;7.47;;;;;;;10.46;100.00;98670.31;5118225;23;20993;-95
2023/01/06 06:35:59;;;;;;;10.03;7.70;;;;;;;10.47;100.00;98670.25;5117140;23;20981;-95
2023/01/06 06:38:04;;;;;;;18.43;7.50;;;;;;;10.50;100.00;98671.84;5117108;23;20593;-94
2023/01/06 06:40:08;;;;;;;12.70;7.17;;;;;;;10.50;100.00;98667.47;5117169;23;20585;-95
2023/01/06 06:42:12;;;;;;;10.40;6.87;;;;;;;10.51;100.00;98679.56;5118244;23;20605;-96
2023/01/06 06:44:15;;;;;;;9.00;6.77;;;;;;;10.51;100.00;98668.31;5117233;23;20944;-95
2023/01/06 06:46:19;;;;;;;8.00;5.87;;;;;;;10.52;100.00;98673.41;5118425;23;20585;-95
2023/01/06 06:48:22;;;;;;;13.03;7.20;;;;;;;10.52;100.00;98655.16;5118150;23;20582;-95
2023/01/06 06:50:25;;;;;;;6.77;5.97;;;;;;;10.54;100.00;98655.94;5117698;23;20635;-95
2023/01/06 06:52:29;;;;;;;6.20;5.60;;;;;;;10.59;100.00;98660.88;5117763;23;20582;-95
2023/01/06 06:54:34;;;;;;;18.63;16.80;;;;;;;10.60;100.00;98663.38;5118129;23;20582;-95
2023/01/06 06:56:38;;;;;;;9.50;7.63;;;;;;;10.57;100.00;98663.56;5118547;23;20593;-96
2023/01/06 06:58:41;;;;;;;9.37;8.47;;;;;;;10.55;100.00;98664.56;5143465;23;20644;-96
2023/01/06 07:00:46;;;;;;;13.73;12.53;;;;;;;10.54;100.00;98671.56;5119447;23;21000;-95
2023/01/06 07:02:52;;;;;;;11.53;10.33;;;;;;;10.55;100.00;98677.63;5122116;23;20582;-94
2023/01/06 07:04:55;;;;;;;12.00;9.63;;;;;;;10.60;100.00;98672.97;5121223;23;20664;-95
2023/01/06 07:06:59;;;;;;;8.63;7.70;;;;;;;10.58;100.00;98675.66;5122532;23;20673;-95
2023/01/06 07:09:04;;;;;;;8.37;7.60;;;;;;;10.62;100.00;98678.94;5123326;23;21026;-96
2023/01/06 07:11:09;;;;;;;9.80;8.80;;;;;;;10.61;100.00;98687.69;5146546;23;20633;-92
2023/01/06 07:13:15;;;;;;;9.40;8.40;;;;;;;10.62;100.00;98687.59;5147400;23;20577;-95
2023/01/06 07:15:19;;;;;;;9.63;8.10;;;;;;;10.59;100.00;98686.94;5091805;23;20583;-93
2023/01/06 07:17:26;;;;;;;10.43;8.77;;;;;;;10.54;100.00;98684.59;5090747;23;20587;-93
2023/01/06 07:19:29;;;;;;;10.27;9.17;;;;;;;10.53;100.00;98687.31;5114184;23;20705;-92
2023/01/06 07:21:32;;;;;;;9.43;8.17;;;;;;;10.50;100.00;98690.91;5089501;23;20575;-94
2023/01/06 07:23:35;;;;;;;9.63;8.00;;;;;;;10.51;100.00;98691.78;5113895;23;20589;-92
2023/01/06 07:25:38;;;;;;;8.57;7.70;;;;;;;10.49;100.00;98691.88;5113881;23;20577;-92
2023/01/06 07:27:43;;;;;;;8.23;7.40;;;;;;;10.53;100.00;98700.34;5111895;23;20574;-92
2023/01/06 07:29:46;;;;;;;8.53;6.70;;;;;;;10.53;100.00;98703.78;5088007;23;20614;-92
2023/01/06 07:31:51;;;;;;;7.70;6.90;;;;;;;10.54;100.00;98709.81;5087823;23;21238;-91
2023/01/06 07:33:54;;;;;;;8.98;7.35;;;;;;;10.55;100.00;98711.53;5113093;23;21121;-93
2023/01/06 07:35:58;;;;;;;9.37;7.53;;;;;;;10.53;100.00;98705.56;5087844;23;20724;-92
2023/01/06 07:38:05;;;;;;;9.60;7.63;;;;;;;10.53;100.00;98718.59;5113217;23;20593;-92
2023/01/06 07:40:09;;;;;;;10.40;8.20;;;;;;;10.53;100.00;98726.44;5113042;23;20563;-91
2023/01/06 07:42:12;;;;;;;9.87;7.53;;;;;;;10.52;100.00;98727.34;5088375;23;21127;-92
2023/01/06 07:44:17;;;;;;;8.37;7.10;;;;;;;10.52;100.00;98727.34;5138855;23;20569;-92
2023/01/06 07:46:20;;;;;;;12.23;10.17;;;;;;;10.51;100.00;98736.13;5138000;23;20573;-92
2023/01/06 07:48:23;;;;;;;11.27;10.07;;;;;;;10.54;100.00;98742.00;5088551;23;20917;-91
2023/01/06 07:50:26;;;;;;;11.57;8.77;;;;;;;10.52;100.00;98732.56;5112173;23;20613;-91
2023/01/06 07:52:30;;;;;;;10.53;9.30;;;;;;;10.52;100.00;98737.78;5088562;23;21371;-91
2023/01/06 07:54:33;;;;;;;12.13;9.33;;;;;;;10.54;100.00;98731.56;5089421;23;20590;-91
2023/01/06 07:56:36;;;;;;;9.97;8.83;;;;;;;10.55;100.00;98730.59;5113402;23;20593;-91
2023/01/06 07:58:39;;;;;;;11.77;9.20;;;;;;;10.54;100.00;98736.78;5113700;23;20581;-91
2023/01/06 08:00:44;;;;;;;13.70;8.40;;;;;;;10.55;100.00;98743.66;5112060;23;20617;-91
2023/01/06 08:02:47;;;;;;;10.47;8.80;;;;;;;10.60;100.00;98746.00;5088198;23;20662;-93
2023/01/06 08:04:51;;;;;;;7.73;7.03;;;;;;;10.59;100.00;98755.59;5112636;23;20892;-91
2023/01/06 08:06:54;;;;;;;7.77;6.50;;;;;;;10.61;100.00;98760.72;5112214;23;20580;-91
2023/01/06 08:08:57;;;;;;;10.57;8.00;;;;;;;10.62;100.00;98768.47;5088322;23;20585;-91
2023/01/06 08:11:00;;;;;;;11.03;6.87;;;;;;;10.59;100.00;98771.25;5087493;23;20612;-91
2023/01/06 08:13:03;;;;;;;6.43;5.83;;;;;;;10.55;100.00;98771.50;5087036;23;20909;-90
2023/01/06 08:15:08;;;;;;;4.80;4.10;;;;;;;10.54;100.00;98772.41;5112568;23;20578;-91
2023/01/06 08:17:13;;;;;;;6.13;4.73;;;;;;;10.56;100.00;98773.19;5138858;23;21139;-91
2023/01/06 08:19:16;;;;;;;3.23;2.93;;;;;;;10.53;100.00;98765.53;5112953;23;20925;-91
2023/01/06 08:21:19;;;;;;;2.80;2.50;;;;;;;10.52;100.00;98767.28;5087596;23;20575;-91
2023/01/06 08:23:22;;;;;;;3.63;2.50;;;;;;;10.54;100.00;98762.00;5087753;23;20583;-90
2023/01/06 08:25:25;;;;;;;4.13;3.13;;;;;;;10.60;100.00;98761.63;5088022;23;20711;-90
2023/01/06 08:27:28;;;;;;;4.10;3.10;;;;;;;10.62;100.00;98770.25;5087430;23;20591;-90
2023/01/06 08:29:31;;;;;;;5.30;4.00;;;;;;;10.64;100.00;98769.19;5112655;23;21164;-90
2023/01/06 08:31:35;;;;;;;3.37;2.93;;;;;;;10.67;100.00;98768.19;5137729;23;20586;-90
2023/01/06 08:33:40;;;;;;;3.60;2.80;;;;;;;10.69;100.00;98768.94;5112436;23;20588;-90
2023/01/06 08:35:46;;;;;;;3.63;2.40;;;;;;;10.72;100.00;98767.00;5087956;23;20650;-90
2023/01/06 08:37:49;;;;;;;3.57;2.60;;;;;;;10.74;100.00;98764.31;5111652;23;20617;-91
2023/01/06 08:39:52;;;;;;;4.40;2.00;;;;;;;10.78;100.00;98757.97;5112297;23;20605;-91
2023/01/06 08:41:55;;;;;;;7.90;2.90;;;;;;;10.81;100.00;98764.69;5087087;23;20582;-90
2023/01/06 08:43:58;;;;;;;4.10;3.00;;;;;;;10.85;100.00;98763.59;5112653;23;20585;-91
2023/01/06 08:46:03;;;;;;;3.80;3.30;;;;;;;10.88;100.00;98767.78;5111476;23;20596;-91
2023/01/06 08:48:07;;;;;;;3.67;2.60;;;;;;;10.90;100.00;98771.16;5087834;23;20995;-91
2023/01/06 08:50:11;;;;;;;3.57;2.93;;;;;;;10.91;100.00;98773.66;5087928;23;20590;-90
2023/01/06 08:52:15;;;;;;;4.43;3.27;;;;;;;10.95;100.00;98775.16;5111371;23;20909;-91
2023/01/06 08:54:18;;;;;;;3.47;2.50;;;;;;;10.97;100.00;98778.50;5087514;23;20620;-91
2023/01/06 08:56:22;;;;;;;2.80;2.50;;;;;;;11.01;100.00;98784.41;5112408;23;21139;-91
2023/01/06 08:58:25;;;;;;;2.90;2.33;;;;;;;11.04;100.00;98785.06;5086667;23;20583;-91
2023/01/06 09:00:29;;;;;;;5.40;2.40;;;;;;;11.09;100.00;98796.06;5111817;23;20566;-91
2023/01/06 09:02:32;;;;;;;3.93;2.97;;;;;;;11.10;100.00;98799.53;5111718;23;20637;-91
2023/01/06 09:04:35;;;;;;;5.63;3.50;;;;;;;11.14;100.00;98793.19;5113104;23;20615;-91
2023/01/06 09:06:42;;;;;;;4.30;3.23;;;;;;;11.18;100.00;98794.69;5086452;23;20677;-90
2023/01/06 09:08:47;;;;;;;3.43;3.00;;;;;;;11.23;100.00;98800.47;5111028;23;20574;-90
2023/01/06 09:10:50;;;;;;;6.37;3.20;;;;;;;11.26;100.00;98803.75;5112054;23;20613;-90
2023/01/06 09:12:54;;;;;;;4.30;3.23;;;;;;;11.28;100.00;98796.66;5087421;23;20587;-90
2023/01/06 09:14:57;;;;;;;8.33;3.77;;;;;;;11.28;100.00;98794.88;5088133;23;21391;-92
2023/01/06 09:17:00;;;;;;;8.73;3.60;;;;;;;11.31;100.00;98793.88;5138509;23;20550;-92
2023/01/06 09:19:03;;;;;;;5.27;3.30;;;;;;;11.33;100.00;98792.00;5112996;23;20637;-92
2023/01/06 09:21:06;;;;;;;3.07;2.43;;;;;;;11.35;100.00;98800.56;5085459;23;20668;-88
2023/01/06 09:23:11;;;;;;;3.07;2.30;;;;;;;11.39;100.00;98805.50;5111639;23;20590;-89
2023/01/06 09:25:14;;;;;;;2.13;1.77;;;;;;;11.42;100.00;98807.09;5087585;23;20586;-88
2023/01/06 09:27:17;;;;;;;3.50;2.00;;;;;;;11.44;100.00;98810.47;5112157;23;20637;-89
2023/01/06 09:29:20;;;;;;;6.70;3.43;;;;;;;11.46;100.00;98808.63;5111790;23;20679;-89
2023/01/06 09:31:23;;;;;;;4.77;3.17;;;;;;;11.49;99.43;98809.28;5112679;23;20614;-89
2023/01/06 09:33:26;;;;;;;3.23;2.23;;;;;;;11.50;100.00;98817.97;5087993;23;20974;-90
2023/01/06 09:35:30;;;;;;;3.47;2.97;;;;;;;11.53;99.84;98815.16;5112763;23;20610;-90
2023/01/06 09:37:33;;;;;;;4.00;3.13;;;;;;;11.58;100.00;98818.34;5111884;23;21036;-92
2023/01/06 09:39:38;;;;;;;5.37;3.00;;;;;;;11.62;100.00;98814.59;5088849;23;20587;-92
2023/01/06 09:42:00;;;;;;;4.37;3.23;;;;;;;11.68;100.00;98824.69;5087432;23;21099;-92